Kemptville, Canada
Current Conditions -  °F | °C
As of 6:00 AM on Saturday 25 Oct 2014 (Local Time) from CYOW Reporting Station
Few Clouds Few Clouds  
Wind Chill: 34°   Ceiling: Unl
Heat Index: 37°   Visibility: 15mi
Dew Point: 34°   Wind: 5mph
Humidity: 87%   Direction: 210°SSW
Pressure: 29.77"   Gusts: NA
Location:  45.02°N, 75.65°W
Report Text: CYOW 251000Z 21004KT 15SM FEW036 03/01 A2977 RMK SC2 SLP083
Loading
Personal Weather Stations






























Interactive Weather Map
Tropical Storm Tracking
New forecast layout! Learn more

10-Day Weather Forecast

Advertisements
Track Severe Weather on mobile